Fabian Garcia SC

Jan. 22, 2020, 4:40 p.m.

  • imperial
Air Temperature RH Dewpoint Wind Chill Heat Index Wind Speed Wind Direction Precipitation Solar Radiation Soil Temperature
Date Time Max Mean Mean Total Total
US/Mountain F % F F F MPH MPH MPH deg. deg. in. MJ/m^2 F
2020-01-21 16:40 45.5 84.5 41.1 45.5 45.5 0.0 3.31 1.45 19.7 177.3 0.0 0.007 44.64
2020-01-21 16:45 45.61 84.7 41.27 45.61 45.61 0.0 1.88 0.4 13.4 164.2 0.0 0.005 44.67
2020-01-21 16:50 45.61 84.9 41.33 45.61 45.61 0.0 1.88 0.81 12.3 139.0 0.0 0.004 44.67
2020-01-21 16:55 45.61 84.8 41.3 45.61 45.61 0.0 1.88 0.49 5.8 172.5 0.0 0.003 44.65
2020-01-21 17:00 45.5 84.6 41.13 45.5 45.5 0.0 2.24 1.21 17.0 171.8 0.0 0.004 44.67
2020-01-21 17:05 45.61 85.0 41.36 45.61 45.61 1.88 2.24 1.21 12.4 177.6 0.0 0.004 44.67
2020-01-21 17:10 45.48 84.9 41.21 45.48 45.48 2.77 3.31 2.08 12.8 187.3 0.0 0.004 44.67
2020-01-21 17:15 45.48 85.6 41.42 44.41 45.48 3.13 3.13 2.06 12.7 182.0 0.0 0.003 44.69
2020-01-21 17:20 45.37 85.9 41.4 45.37 45.37 2.24 4.21 2.68 12.3 195.0 0.0 0.002 44.71
2020-01-21 17:25 45.36 86.1 41.45 45.36 45.36 2.42 3.31 2.13 19.6 187.2 0.0 0.001 44.71
2020-01-21 17:30 45.37 86.1 41.46 45.37 45.37 0.98 2.24 0.76 16.2 168.8 0.0 0.001 44.71
2020-01-21 17:35 45.25 86.0 41.31 45.25 45.25 1.34 2.24 0.31 3.4 133.9 0.0 0.0 44.71
2020-01-21 17:40 45.25 85.9 41.28 45.25 45.25 1.7 2.06 0.67 15.4 117.3 0.0 0.0 44.71
2020-01-21 17:45 45.5 86.1 41.59 45.5 45.5 2.24 2.42 1.19 13.1 109.7 0.0 0.0 44.71
2020-01-21 17:50 45.68 85.3 41.52 45.68 45.68 2.77 3.67 2.37 15.8 105.7 0.0 0.0 44.71
2020-01-21 17:55 45.81 84.6 41.43 45.81 45.81 1.88 4.56 3.04 12.6 95.1 0.0 0.0 44.71
2020-01-21 18:00 45.86 84.3 41.39 44.19 45.86 3.85 3.85 1.9 13.3 110.7 0.0 0.0 44.71
2020-01-21 18:05 46.11 84.0 41.55 46.11 46.11 0.98 4.74 2.21 16.6 98.9 0.0 0.0 44.71
2020-01-21 18:10 45.99 83.9 41.39 45.99 45.99 1.52 2.06 0.67 20.9 196.9 0.0 0.0 44.73
2020-01-21 18:15 45.73 84.2 41.24 45.73 45.73 0.0 3.13 1.97 12.8 195.1 0.0 0.0 44.71
2020-01-21 18:20 45.81 84.5 41.4 45.81 45.81 2.24 3.49 2.21 15.0 190.1 0.0 0.0 44.71
2020-01-21 18:25 45.73 84.6 41.36 45.73 45.73 1.88 2.42 1.03 49.6 152.4 0.0 0.0 44.71
2020-01-21 18:30 45.68 84.5 41.28 45.68 45.68 1.16 3.67 2.08 18.0 123.7 0.0 0.0 44.71
2020-01-21 18:35 45.86 84.4 41.42 45.86 45.86 1.88 2.77 1.39 16.3 127.2 0.0 0.0 44.71
2020-01-21 18:40 45.86 84.1 41.33 45.86 45.86 0.0 3.13 1.66 16.4 134.6 0.0 0.0 44.69
2020-01-21 18:45 45.91 84.0 41.35 45.91 45.91 2.06 2.77 1.66 31.8 87.9 0.0 0.0 44.71
2020-01-21 18:50 45.73 84.1 41.21 45.73 45.73 0.0 2.42 0.72 31.2 145.4 0.0 0.0 44.69
2020-01-21 18:55 45.61 84.3 41.15 45.61 45.61 2.77 3.85 2.28 12.1 69.0 0.0 0.0 44.69
2020-01-21 19:00 45.73 84.3 41.27 45.73 45.73 2.59 2.95 2.15 45.9 141.9 0.0 0.0 44.69
2020-01-21 19:05 45.5 84.5 41.1 45.5 45.5 0.0 2.95 1.39 20.7 206.2 0.0 0.0 44.69
2020-01-21 19:10 45.25 85.2 41.07 45.25 45.25 2.06 2.59 1.05 9.7 182.3 0.0 0.0 44.67
2020-01-21 19:15 45.12 86.0 41.19 45.12 45.12 0.0 3.49 2.08 15.4 182.4 0.0 0.0 44.65
2020-01-21 19:20 44.89 85.9 40.93 44.89 44.89 0.0 0.98 0.16 2.9 110.7 0.0 0.0 44.65
2020-01-21 19:25 44.82 85.9 40.85 44.82 44.82 0.0 2.06 0.85 8.4 81.5 0.0 0.0 44.65
2020-01-21 19:30 44.65 86.5 40.88 44.65 44.65 2.24 2.42 0.31 0.9 200.4 0.0 0.0 44.65
2020-01-21 19:35 44.17 87.7 40.75 42.56 44.17 3.49 3.49 2.84 7.6 212.2 0.0 0.0 44.65
2020-01-21 19:40 43.92 88.4 40.71 43.92 43.92 0.0 3.49 2.01 21.6 204.4 0.0 0.0 44.62
2020-01-21 19:45 43.79 88.4 40.59 43.79 43.79 0.0 0.98 0.11 2.3 192.8 0.0 0.0 44.62
2020-01-21 19:50 43.68 88.6 40.54 43.68 43.68 0.0 0.0 0.0 0.0 0.0 0.0 0.0 44.6
2020-01-21 19:55 43.43 88.9 40.38 43.43 43.43 0.0 0.98 0.07 0.9 137.5 0.0 0.0 44.58
2020-01-21 20:00 43.2 89.2 40.23 43.2 43.2 0.0 1.7 0.22 1.3 134.9 0.0 0.0 44.58
2020-01-21 20:05 43.32 89.9 40.56 43.32 43.32 0.0 2.06 0.89 7.5 118.0 0.0 0.0 44.55
2020-01-21 20:10 43.07 89.9 40.31 43.07 43.07 1.52 1.88 1.03 15.0 171.7 0.0 0.0 44.53
2020-01-21 20:15 42.84 90.2 40.16 42.84 42.84 0.0 1.88 0.98 14.8 176.4 0.0 0.0 44.51
2020-01-21 20:20 42.58 90.3 39.94 42.58 42.58 0.0 2.42 0.81 6.4 187.1 0.0 0.0 44.51
2020-01-21 20:25 42.66 90.8 40.16 42.66 42.66 0.98 2.42 1.63 18.7 145.7 0.0 0.0 44.47
2020-01-21 20:30 42.48 90.9 40.01 42.48 42.48 0.0 2.42 0.69 11.3 155.0 0.0 0.0 44.46
2020-01-21 20:35 42.53 91.2 40.14 42.53 42.53 0.0 1.34 0.29 13.8 160.4 0.0 0.0 44.44
2020-01-21 20:40 42.53 91.2 40.14 42.53 42.53 2.24 2.24 0.34 11.9 129.2 0.0 0.0 44.4
2020-01-21 20:45 42.58 91.6 40.31 42.58 42.58 1.52 2.95 1.72 22.1 140.4 0.0 0.0 44.38
2020-01-21 20:50 42.71 91.8 40.49 42.71 42.71 2.95 3.13 1.81 26.1 217.2 0.0 0.0 44.35
2020-01-21 20:55 43.09 90.5 40.5 43.09 43.09 2.95 3.31 1.48 44.2 188.2 0.0 0.0 44.33
2020-01-21 21:00 42.96 89.9 40.2 41.01 42.96 3.67 3.67 1.66 34.7 207.6 0.0 0.0 44.29
2020-01-21 21:05 42.96 89.4 40.06 42.96 42.96 0.98 3.31 1.59 37.2 175.5 0.0 0.0 44.26
2020-01-21 21:10 42.84 89.5 39.96 42.84 42.84 0.0 0.98 0.16 7.5 145.0 0.0 0.0 44.24
2020-01-21 21:15 42.58 89.7 39.77 42.58 42.58 0.0 0.0 0.0 0.0 0.0 0.0 0.0 44.22
2020-01-21 21:20 42.28 89.8 39.5 42.28 42.28 0.0 0.81 0.02 0.0 136.1 0.0 0.0 44.22
2020-01-21 21:25 42.22 90.5 39.64 42.22 42.22 0.0 1.7 0.27 26.1 156.1 0.0 0.0 44.19
2020-01-21 21:30 41.86 90.6 39.32 41.86 41.86 0.81 0.81 0.02 0.0 251.8 0.0 0.0 44.17
2020-01-21 21:35 42.84 89.6 39.99 42.84 42.84 2.42 4.38 1.88 74.2 187.9 0.0 0.0 44.13
2020-01-21 21:40 42.58 87.8 39.22 42.58 42.58 1.16 2.42 1.03 29.2 47.6 0.0 0.0 44.11
2020-01-21 21:45 42.1 88.5 38.95 42.1 42.1 0.0 2.06 1.14 17.3 170.3 0.0 0.0 44.1
2020-01-21 21:50 42.35 89.9 39.6 42.35 42.35 2.59 3.13 1.97 12.9 129.3 0.0 0.0 44.06
2020-01-21 21:55 42.22 89.6 39.39 42.22 42.22 1.34 2.42 0.54 19.5 84.2 0.0 0.0 44.04
2020-01-21 22:00 42.04 89.8 39.27 42.04 42.04 2.06 2.42 1.61 49.2 88.8 0.0 0.0 44.02
2020-01-21 22:05 41.99 90.9 39.53 41.99 41.99 0.0 2.42 1.23 6.2 261.9 0.0 0.0 43.99
2020-01-21 22:10 41.99 90.4 39.38 41.99 41.99 0.0 1.7 0.94 39.2 171.2 0.0 0.0 43.99
2020-01-21 22:15 41.49 90.1 38.8 41.49 41.49 1.7 2.95 1.21 7.0 213.6 0.0 0.0 43.95
2020-01-21 22:20 41.49 91.4 39.17 41.49 41.49 2.42 3.49 2.28 24.4 183.2 0.0 0.0 43.92
2020-01-21 22:25 41.43 91.1 39.03 41.43 41.43 2.24 2.42 1.45 20.4 157.4 0.0 0.0 43.9
2020-01-21 22:30 41.38 91.0 38.95 41.38 41.38 0.0 2.24 0.51 16.0 196.0 0.0 0.0 43.88
2020-01-21 22:35 41.56 91.3 39.21 41.56 41.56 0.81 3.67 1.95 15.6 117.7 0.0 0.0 43.84
2020-01-21 22:40 41.5 91.0 39.07 41.5 41.5 1.16 1.16 0.16 3.9 142.5 0.0 0.0 43.83
2020-01-21 22:45 41.38 91.0 38.95 41.38 41.38 0.0 0.98 0.11 5.6 126.5 0.0 0.0 43.79
2020-01-21 22:50 41.38 91.5 39.09 41.38 41.38 0.81 1.34 0.18 10.0 170.5 0.0 0.0 43.77
2020-01-21 22:55 41.0 91.0 38.58 41.0 41.0 0.81 2.24 0.4 11.2 180.0 0.0 0.0 43.74
2020-01-21 23:00 40.69 91.2 38.33 40.69 40.69 0.98 1.52 0.38 7.1 185.2 0.0 0.0 43.72
2020-01-21 23:05 40.53 91.6 38.28 40.53 40.53 0.0 2.42 0.45 9.2 131.0 0.0 0.0 43.7
2020-01-21 23:10 40.64 91.8 38.44 40.64 40.64 0.81 2.06 1.12 14.6 117.4 0.0 0.0 43.66
2020-01-21 23:15 40.53 91.9 38.36 40.53 40.53 0.98 1.34 0.27 9.1 135.0 0.0 0.0 43.65
2020-01-21 23:20 40.53 92.3 38.47 40.53 40.53 1.16 2.24 1.23 18.5 176.4 0.0 0.0 43.63
2020-01-21 23:25 40.53 92.5 38.53 40.53 40.53 0.0 1.7 0.65 15.8 166.3 0.0 0.0 43.59
2020-01-21 23:30 40.23 92.3 38.17 40.23 40.23 0.0 0.81 0.02 0.0 138.9 0.0 0.0 43.59
2020-01-21 23:35 39.92 92.5 37.92 39.92 39.92 1.52 3.49 2.21 17.2 256.3 0.0 0.0 43.56
2020-01-21 23:40 39.79 92.7 37.85 39.79 39.79 0.0 1.7 0.54 41.0 113.5 0.0 0.0 43.54
2020-01-21 23:45 40.1 93.3 38.32 40.1 40.1 0.0 2.42 0.81 9.1 174.4 0.0 0.0 43.54
2020-01-21 23:50 40.05 93.1 38.21 40.05 40.05 0.0 1.88 0.4 2.4 218.0 0.0 0.0 43.52
2020-01-21 23:55 39.87 93.0 38.01 39.87 39.87 2.24 2.24 0.45 2.9 196.7 0.0 0.0 43.5
2020-01-22 00:00 39.67 93.3 37.89 39.67 39.67 1.16 2.24 1.5 9.0 185.3 0.0 0.0 43.47
2020-01-22 00:05 39.92 93.6 38.22 39.92 39.92 1.16 2.24 1.41 9.9 165.4 0.0 0.0 43.45
2020-01-22 00:10 40.05 93.8 38.4 40.05 40.05 0.0 2.06 0.54 5.8 173.4 0.0 0.0 43.43
2020-01-22 00:15 39.79 93.4 38.05 39.79 39.79 1.7 1.7 0.13 3.2 166.7 0.0 0.0 43.39
2020-01-22 00:20 39.79 93.8 38.15 39.79 39.79 0.0 2.42 0.76 18.9 143.1 0.0 0.0 43.38
2020-01-22 00:25 40.05 94.0 38.46 40.05 40.05 1.7 2.42 1.03 57.5 282.5 0.0 0.0 43.36
2020-01-22 00:30 40.17 93.9 38.56 40.17 40.17 1.34 2.59 1.43 12.9 170.4 0.0 0.0 43.32
2020-01-22 00:35 39.67 93.6 37.97 39.67 39.67 2.42 2.59 1.97 8.0 193.1 0.0 0.0 43.3
2020-01-22 00:40 39.79 93.8 38.15 39.79 39.79 1.52 2.24 1.23 23.5 165.2 0.0 0.0 43.29
2020-01-22 00:45 39.67 93.8 38.03 39.67 39.67 1.34 2.24 0.87 12.2 169.0 0.0 0.0 43.27
2020-01-22 00:50 39.56 93.8 37.92 39.56 39.56 1.88 2.24 0.65 9.8 175.7 0.0 0.0 43.25
2020-01-22 00:55 39.25 93.7 37.59 39.25 39.25 0.0 1.7 0.51 4.4 177.8 0.0 0.0 43.21
2020-01-22 01:00 39.18 93.8 37.55 39.18 39.18 0.0 2.24 0.43 15.3 140.3 0.0 0.0 43.23
2020-01-22 01:05 39.0 94.0 37.42 39.0 39.0 1.88 2.95 1.77 12.8 136.8 0.0 0.0 43.18
2020-01-22 01:10 39.0 94.0 37.42 39.0 39.0 2.77 3.31 1.95 24.2 169.2 0.0 0.0 43.16
2020-01-22 01:15 39.0 94.1 37.45 39.0 39.0 1.52 4.03 2.44 20.3 172.6 0.0 0.0 43.14
2020-01-22 01:20 38.95 94.3 37.45 38.95 38.95 1.88 3.49 2.51 17.8 164.3 0.0 0.0 43.14
2020-01-22 01:25 38.95 94.2 37.42 38.95 38.95 0.0 2.59 1.3 21.8 169.8 0.0 0.0 43.09
2020-01-22 01:30 38.82 94.3 37.32 38.82 38.82 2.06 2.06 0.78 18.6 175.0 0.0 0.0 43.11
2020-01-22 01:35 39.06 94.3 37.56 39.06 39.06 0.0 2.77 2.17 11.1 182.8 0.0 0.0 43.09
2020-01-22 01:40 38.88 94.2 37.35 38.88 38.88 0.0 1.16 0.16 4.3 109.9 0.0 0.0 43.05
2020-01-22 01:45 38.7 94.1 37.15 38.7 38.7 2.24 2.24 0.54 8.2 78.1 0.0 0.0 43.03
2020-01-22 01:50 38.7 94.3 37.2 38.7 38.7 1.7 2.95 2.33 18.5 99.7 0.0 0.0 43.03
2020-01-22 01:55 38.57 94.0 36.99 38.57 38.57 0.81 3.13 1.52 14.7 140.5 0.0 0.0 43.02
2020-01-22 02:00 38.57 94.0 36.99 38.57 38.57 0.98 1.88 0.96 9.4 157.9 0.0 0.0 43.0
2020-01-22 02:05 38.57 94.1 37.02 38.57 38.57 1.16 2.77 1.61 23.6 176.5 0.0 0.0 42.98
2020-01-22 02:10 38.57 94.0 36.99 38.57 38.57 0.0 2.77 1.5 11.4 191.3 0.0 0.0 42.96
2020-01-22 02:15 38.64 94.0 37.06 38.64 38.64 0.0 1.7 0.2 4.5 145.7 0.0 0.0 42.94
2020-01-22 02:20 38.82 94.0 37.24 38.82 38.82 0.0 1.7 0.89 15.1 125.5 0.0 0.0 42.94
2020-01-22 02:25 38.57 93.8 36.94 38.57 38.57 1.34 2.42 1.68 13.9 153.7 0.0 0.0 42.91
2020-01-22 02:30 38.57 93.9 36.97 38.57 38.57 1.88 2.06 1.45 15.5 162.9 0.0 0.0 42.89
2020-01-22 02:35 38.57 93.8 36.94 38.57 38.57 2.42 2.77 1.63 13.3 159.9 0.0 0.0 42.89
2020-01-22 02:40 38.7 93.9 37.09 38.7 38.7 1.52 2.77 1.95 14.6 168.9 0.0 0.0 42.87
2020-01-22 02:45 38.95 93.8 37.31 38.95 38.95 2.24 2.24 1.43 17.7 122.2 0.0 0.0 42.85
2020-01-22 02:50 38.95 93.7 37.29 38.95 38.95 2.42 3.31 2.06 18.0 108.9 0.0 0.0 42.84
2020-01-22 02:55 38.75 93.6 37.06 38.75 38.75 0.0 2.42 0.43 14.0 140.5 0.0 0.0 42.82
2020-01-22 03:00 38.82 93.6 37.14 38.82 38.82 0.0 0.0 0.0 0.0 0.0 0.0 0.0 42.82
2020-01-22 03:05 38.7 93.3 36.93 38.7 38.7 0.0 1.52 0.34 1.6 218.3 0.0 0.0 42.8
2020-01-22 03:10 38.7 93.5 36.98 38.7 38.7 2.24 2.24 0.36 3.6 236.4 0.0 0.0 42.78
2020-01-22 03:15 38.52 93.3 36.75 38.52 38.52 0.0 2.42 0.81 6.1 206.5 0.0 0.0 42.76
2020-01-22 03:20 38.88 93.5 37.16 38.88 38.88 1.52 3.85 1.7 42.8 183.2 0.0 0.0 42.75
2020-01-22 03:25 39.06 93.5 37.34 39.06 39.06 2.24 2.24 0.94 67.5 159.4 0.0 0.0 42.75
2020-01-22 03:30 39.13 93.2 37.33 39.13 39.13 1.16 3.31 1.7 34.4 273.6 0.0 0.0 42.73
2020-01-22 03:35 39.18 93.0 37.33 39.18 39.18 0.0 2.24 1.1 24.1 201.2 0.0 0.0 42.71
2020-01-22 03:40 38.82 92.9 36.94 38.82 38.82 0.0 2.24 0.94 37.0 279.3 0.0 0.0 42.69
2020-01-22 03:45 39.06 93.3 37.29 39.06 39.06 0.0 1.16 0.18 1.0 160.8 0.0 0.0 42.69
2020-01-22 03:50 39.43 93.5 37.72 39.43 39.43 2.06 2.77 0.78 9.3 53.7 0.0 0.0 42.67
2020-01-22 03:55 40.41 93.7 38.73 40.41 40.41 1.34 2.77 1.66 36.5 63.0 0.0 0.0 42.66
2020-01-22 04:00 41.45 92.8 39.52 41.45 41.45 2.24 3.67 1.95 77.7 31.8 0.0 0.0 42.66
2020-01-22 04:05 41.88 91.2 39.5 41.88 41.88 1.88 3.13 1.36 13.2 105.9 0.0 0.0 42.62
2020-01-22 04:10 41.76 90.9 39.29 41.76 41.76 1.88 2.06 0.96 57.3 151.9 0.0 0.0 42.62
2020-01-22 04:15 42.42 90.8 39.92 42.42 42.42 2.06 4.38 2.08 45.7 233.0 0.0 0.0 42.6
2020-01-22 04:20 42.98 89.9 40.22 42.98 42.98 1.52 3.31 1.99 25.6 224.0 0.0 0.0 42.58
2020-01-22 04:25 42.73 88.9 39.68 42.73 42.73 2.59 2.59 0.83 48.5 69.3 0.0 0.0 42.58
2020-01-22 04:30 42.85 88.4 39.66 42.85 42.85 0.0 3.13 1.19 6.6 89.2 0.0 0.0 42.57
2020-01-22 04:35 42.35 88.9 39.31 42.35 42.35 0.81 1.88 0.58 9.1 135.2 0.0 0.0 42.55
2020-01-22 04:40 42.22 89.3 39.3 42.22 42.22 1.88 2.95 2.15 10.0 94.1 0.0 0.0 42.55
2020-01-22 04:45 42.35 89.3 39.43 40.85 42.35 3.13 3.13 1.99 13.9 97.8 0.0 0.0 42.57
2020-01-22 04:50 42.84 89.3 39.91 42.84 42.84 2.06 3.31 2.48 9.6 117.0 0.0 0.0 42.55
2020-01-22 04:55 42.58 89.0 39.57 42.58 42.58 1.88 3.31 0.87 26.9 68.7 0.0 0.0 42.51
2020-01-22 05:00 43.32 89.1 40.33 43.32 43.32 1.7 3.67 1.68 26.6 103.7 0.0 0.0 42.51
2020-01-22 05:05 43.7 87.9 40.35 43.7 43.7 0.0 2.95 0.78 34.6 254.2 0.0 0.0 42.51
2020-01-22 05:10 43.2 88.5 40.03 43.2 43.2 0.0 2.42 0.94 29.5 175.1 0.0 0.0 42.51
2020-01-22 05:15 43.57 87.8 40.2 43.57 43.57 0.0 2.59 1.32 60.7 215.5 0.0 0.0 42.48
2020-01-22 05:20 43.14 89.7 40.32 40.9 43.14 4.03 6.0 2.3 20.4 198.6 0.0 0.0 42.48
2020-01-22 05:25 43.09 89.2 40.13 43.09 43.09 2.24 4.21 2.84 28.9 186.1 0.0 0.0 42.48
2020-01-22 05:30 42.58 89.2 39.63 39.95 42.58 4.38 4.38 2.77 18.3 111.7 0.0 0.0 42.48
2020-01-22 05:35 42.84 89.9 40.08 42.84 42.84 2.24 4.56 3.22 10.5 111.5 0.0 0.0 42.48
2020-01-22 05:40 43.09 89.5 40.21 43.09 43.09 2.95 4.56 2.46 48.9 151.0 0.0 0.0 42.44
2020-01-22 05:45 43.45 89.1 40.45 43.45 43.45 1.88 4.38 2.66 20.4 205.3 0.0 0.0 42.46
2020-01-22 05:50 43.32 88.6 40.18 43.32 43.32 2.59 3.31 2.17 20.7 168.0 0.0 0.0 42.44
2020-01-22 05:55 42.96 88.7 39.86 42.96 42.96 1.34 2.95 1.48 20.8 168.4 0.0 0.0 42.44
2020-01-22 06:00 42.4 89.1 39.42 42.4 42.4 0.81 1.16 0.22 24.7 152.1 0.0 0.0 42.44
2020-01-22 06:05 42.35 89.9 39.6 42.35 42.35 0.98 3.49 2.28 23.8 4.1 0.0 0.0 42.44
2020-01-22 06:10 42.84 91.1 40.42 42.84 42.84 1.52 2.77 1.86 22.0 28.4 0.0 0.0 42.42
2020-01-22 06:15 42.71 91.0 40.27 41.07 42.71 3.31 3.49 1.68 16.5 64.2 0.0 0.0 42.42
2020-01-22 06:20 43.63 90.6 41.06 41.78 43.63 3.67 5.64 3.89 7.6 88.1 0.0 0.0 42.4
2020-01-22 06:25 44.8 89.2 41.81 43.45 44.8 3.31 5.64 3.87 16.4 91.3 0.0 0.0 42.4
2020-01-22 06:30 44.37 87.4 40.86 42.03 44.37 4.38 6.0 3.44 51.1 258.1 0.0 0.0 42.39
2020-01-22 06:35 44.42 87.6 40.97 44.42 44.42 2.06 3.49 0.87 20.4 201.2 0.0 0.0 42.39
2020-01-22 06:40 44.19 88.4 40.98 44.19 44.19 0.0 2.77 0.78 3.2 235.4 0.0 0.0 42.37
2020-01-22 06:45 44.29 88.8 41.2 44.29 44.29 0.0 1.88 0.36 4.7 121.0 0.0 0.0 42.37
2020-01-22 06:50 44.24 89.1 41.23 43.0 44.24 3.13 4.74 3.18 13.8 25.8 0.0 0.0 42.37
2020-01-22 06:55 45.16 88.6 41.99 41.58 45.16 6.53 6.89 4.12 17.5 24.6 0.0 0.0 42.35
2020-01-22 07:00 45.88 86.0 41.93 45.88 45.88 1.7 7.25 3.44 15.7 19.7 0.0 0.0 42.35
2020-01-22 07:05 45.75 86.0 41.8 45.75 45.75 1.7 2.59 1.61 82.2 11.3 0.0 0.001 42.35
2020-01-22 07:10 45.27 86.1 41.36 45.27 45.27 0.98 2.77 1.61 22.6 105.1 0.0 0.002 42.37
2020-01-22 07:15 45.39 85.5 41.3 45.39 45.39 0.0 5.28 2.26 83.3 129.3 0.0 0.003 42.35
2020-01-22 07:20 45.63 85.7 41.59 43.92 45.63 3.85 4.21 2.35 30.4 288.8 0.0 0.004 42.37
2020-01-22 07:25 45.63 85.4 41.5 45.63 45.63 1.7 4.21 2.19 54.1 245.1 0.0 0.006 42.35
2020-01-22 07:30 45.32 84.4 40.89 45.32 45.32 2.42 2.59 1.9 29.8 39.8 0.0 0.01 42.35
2020-01-22 07:35 45.57 86.1 41.66 45.57 45.57 0.0 2.06 0.87 33.0 92.2 0.0 0.014 42.39
2020-01-22 07:40 46.18 84.1 41.65 46.18 46.18 1.7 3.13 1.39 41.1 27.0 0.0 0.018 42.37
2020-01-22 07:45 46.62 82.7 41.64 46.62 46.62 0.0 1.52 0.4 9.3 269.8 0.0 0.016 42.37
2020-01-22 07:50 46.85 81.8 41.58 46.85 46.85 1.34 2.06 0.38 41.3 323.1 0.0 0.021 42.39
2020-01-22 07:55 47.03 81.2 41.57 47.03 47.03 1.34 2.77 1.77 24.9 76.8 0.0 0.032 42.37
2020-01-22 08:00 47.53 80.3 41.77 47.53 47.53 0.0 1.34 0.27 11.6 113.6 0.0 0.036 42.37
2020-01-22 08:05 47.77 80.4 42.03 47.77 47.77 1.16 1.88 1.14 19.8 43.0 0.0 0.045 42.35
2020-01-22 08:10 48.02 79.0 41.82 46.82 48.02 3.67 3.67 2.84 14.2 60.6 0.0 0.058 42.37
2020-01-22 08:15 48.43 78.85 42.17 48.43 48.43 2.59 4.03 2.91 22.4 26.0 0.0 0.073 42.35
2020-01-22 08:20 49.17 77.09 42.3 49.17 49.17 1.88 4.74 2.82 28.8 8.0 0.0 0.074 42.37
2020-01-22 08:25 49.28 74.5 41.52 49.28 49.28 2.06 3.13 1.99 59.0 300.0 0.0 0.044 42.4
2020-01-22 08:30 48.9 75.45 41.48 48.9 48.9 0.0 2.59 1.3 25.7 266.1 0.0 0.042 42.4
2020-01-22 08:35 49.39 74.29 41.55 49.39 49.39 2.24 5.1 2.37 43.4 262.6 0.0 0.065 42.4
2020-01-22 08:40 49.26 73.51 41.16 46.33 49.26 6.89 7.78 5.06 30.0 254.2 0.0 0.056 42.42
2020-01-22 08:45 49.26 72.9 40.94 46.59 49.26 6.35 8.68 6.22 18.5 269.6 0.0 0.076 42.42
2020-01-22 08:50 49.75 71.85 41.03 47.17 49.75 6.35 10.09 6.2 14.6 273.8 0.0 0.089 42.44
2020-01-22 08:55 49.87 70.22 40.56 47.88 49.87 5.28 11.16 7.09 27.1 272.7 0.0 0.087 42.46
2020-01-22 09:00 50.67 70.66 41.48 50.67 50.67 4.03 7.07 4.23 39.2 297.6 0.0 0.098 42.48
2020-01-22 09:05 50.49 69.26 40.79 50.49 50.49 7.61 9.04 6.69 19.0 273.1 0.0 0.101 42.51
2020-01-22 09:10 50.54 68.44 40.54 50.54 50.54 6.35 7.78 5.57 18.3 263.1 0.0 0.069 42.53
2020-01-22 09:15 50.05 70.55 40.86 50.05 50.05 2.95 6.53 4.25 15.4 262.2 0.0 0.027 42.57
2020-01-22 09:20 50.95 69.22 41.23 50.95 50.95 2.06 5.46 2.8 36.7 282.7 0.0 0.105 42.57
2020-01-22 09:25 51.33 66.44 40.53 51.33 51.33 2.77 4.92 3.56 25.0 265.1 0.0 0.115 42.6
2020-01-22 09:30 52.3 68.13 42.11 52.3 52.3 1.16 4.38 2.24 47.3 287.4 0.0 0.118 42.62
2020-01-22 09:35 52.54 65.82 41.43 52.54 52.54 6.0 6.0 3.58 20.8 268.6 0.0 0.121 42.66
2020-01-22 09:40 52.59 63.24 40.45 52.59 52.59 4.74 7.07 4.63 20.9 272.8 0.0 0.125 42.69
2020-01-22 09:45 53.02 62.77 40.67 53.02 53.02 2.06 7.25 3.87 48.8 272.3 0.0 0.128 42.73
2020-01-22 09:50 53.26 61.13 40.21 53.26 53.26 3.67 9.57 4.3 35.4 278.3 0.0 0.132 42.75
2020-01-22 09:55 54.48 59.17 40.52 54.48 54.48 6.0 7.43 2.86 49.4 306.8 0.0 0.135 42.78
2020-01-22 10:00 54.54 57.5 39.83 54.54 54.54 4.21 6.53 4.43 33.9 278.4 0.0 0.139 42.84
2020-01-22 10:05 54.21 56.48 39.07 54.21 54.21 6.53 8.12 5.55 31.7 282.4 0.0 0.12 42.89
2020-01-22 10:10 54.21 56.61 39.13 54.21 54.21 5.28 12.95 7.18 24.1 285.1 0.0 0.145 42.93
2020-01-22 10:15 55.26 55.8 39.74 55.26 55.26 2.24 8.3 3.98 52.2 294.5 0.0 0.148 42.96
2020-01-22 10:20 55.06 51.42 37.46 55.06 55.06 11.16 12.77 7.72 29.0 275.4 0.0 0.152 43.02
2020-01-22 10:25 54.7 52.98 37.89 54.7 54.7 10.09 13.13 9.69 17.5 270.7 0.0 0.154 43.07
2020-01-22 10:30 54.82 53.56 38.28 54.82 54.82 6.89 14.56 8.7 20.0 276.2 0.0 0.159 43.12
2020-01-22 10:35 55.18 53.56 38.62 55.18 55.18 11.16 12.42 8.75 22.1 265.9 0.0 0.16 43.16
2020-01-22 10:40 55.13 51.05 37.34 55.13 55.13 8.86 13.13 9.28 20.6 275.1 0.0 0.163 43.23
2020-01-22 10:45 55.18 52.61 38.16 55.18 55.18 10.09 15.99 10.11 17.4 264.3 0.0 0.165 43.29
2020-01-22 10:50 55.36 53.22 38.62 55.36 55.36 9.73 12.77 9.73 19.0 261.6 0.0 0.167 43.34
2020-01-22 10:55 56.35 51.56 38.73 56.35 56.35 2.77 10.98 6.24 38.1 287.2 0.0 0.169 43.39
2020-01-22 11:00 56.16 52.07 38.8 56.16 56.16 8.48 14.38 9.26 17.3 265.6 0.0 0.172 43.43
2020-01-22 11:05 56.16 50.24 37.88 56.16 56.16 9.73 12.42 8.72 17.8 267.1 0.0 0.174 43.5
2020-01-22 11:10 56.16 50.34 37.93 56.16 56.16 10.45 16.17 9.84 14.1 259.7 0.0 0.175 43.56
2020-01-22 11:15 56.46 48.95 37.5 56.46 56.46 8.12 12.95 8.88 18.1 268.7 0.0 0.177 43.61
2020-01-22 11:20 57.2 48.41 37.9 57.2 57.2 5.46 11.52 6.33 21.0 271.2 0.0 0.177 43.68
2020-01-22 11:25 56.71 48.14 37.31 56.71 56.71 13.13 13.67 9.46 13.2 259.3 0.0 0.183 43.74
2020-01-22 11:30 56.84 50.03 38.41 56.84 56.84 7.43 15.46 9.75 24.4 261.2 0.0 0.185 43.79
2020-01-22 11:35 57.02 48.34 37.7 57.02 57.02 3.13 15.64 8.99 31.7 265.8 0.0 0.188 43.84
2020-01-22 11:40 57.51 47.86 37.89 57.51 57.51 8.48 13.13 8.84 19.0 259.6 0.0 0.188 43.92
2020-01-22 11:45 57.38 47.22 37.43 57.38 57.38 9.57 12.77 8.72 20.2 269.7 0.0 0.192 43.99
2020-01-22 11:50 58.05 47.05 37.95 58.05 58.05 8.12 11.34 8.66 20.0 267.1 0.0 0.206 44.04
2020-01-22 11:55 57.81 45.49 36.88 57.81 57.81 7.25 10.27 7.45 17.2 260.8 0.0 0.197 44.11
2020-01-22 12:00 57.38 47.42 37.54 57.38 57.38 3.67 13.31 8.1 20.3 256.6 0.0 0.19 44.19
2020-01-22 12:05 57.74 46.92 37.6 57.74 57.74 6.53 11.88 7.11 14.8 266.0 0.0 0.19 44.24
2020-01-22 12:10 57.94 45.36 36.92 57.94 57.94 11.34 11.34 8.01 21.2 257.3 0.0 0.192 44.29
2020-01-22 12:15 58.05 44.13 36.32 58.05 58.05 2.95 11.7 7.18 26.0 271.5 0.0 0.186 44.37
2020-01-22 12:20 58.35 43.79 36.4 58.35 58.35 4.74 8.68 4.72 26.4 266.9 0.0 0.19 44.44
2020-01-22 12:25 58.48 44.3 36.81 58.48 58.48 11.7 13.67 7.2 22.0 253.9 0.0 0.198 44.51
2020-01-22 12:30 58.23 41.66 35.03 58.23 58.23 7.25 12.95 8.86 18.7 273.8 0.0 0.177 44.55
2020-01-22 12:35 57.49 45.42 36.54 57.49 57.49 5.82 15.99 7.45 18.5 267.0 0.0 0.111 44.62
2020-01-22 12:40 58.59 43.35 36.36 58.59 58.59 10.45 11.88 7.85 15.7 259.6 0.0 0.192 44.67
2020-01-22 12:45 58.05 42.03 35.09 58.05 58.05 8.3 14.92 9.87 18.4 262.5 0.0 0.19 44.74
2020-01-22 12:50 58.41 42.03 35.41 58.41 58.41 7.43 13.85 7.78 19.9 270.7 0.0 0.19 44.82
2020-01-22 12:55 59.32 41.92 36.18 59.32 59.32 6.89 10.27 6.69 34.5 241.4 0.0 0.195 44.89
2020-01-22 13:00 59.68 41.11 36.01 59.68 59.68 8.48 13.31 8.86 19.5 258.4 0.0 0.196 44.94
2020-01-22 13:05 59.32 41.08 35.67 59.32 59.32 5.28 10.09 7.2 16.2 266.6 0.0 0.155 45.0
2020-01-22 13:10 58.95 40.97 35.26 58.95 58.95 9.57 11.16 8.77 19.9 251.4 0.0 0.155 45.05
2020-01-22 13:15 59.43 40.67 35.51 59.43 59.43 12.06 15.1 9.26 17.7 253.6 0.0 0.191 45.12
2020-01-22 13:20 59.32 41.08 35.67 59.32 59.32 11.52 13.49 8.39 22.7 258.8 0.0 0.146 45.18
2020-01-22 13:25 59.74 39.58 35.1 59.74 59.74 6.17 11.88 8.9 16.1 257.6 0.0 0.186 45.25
2020-01-22 13:30 61.27 40.94 37.33 61.27 61.27 4.03 7.25 4.56 47.9 267.6 0.0 0.169 45.3
2020-01-22 13:35 60.78 38.36 35.25 60.78 60.78 4.74 7.61 5.1 37.8 293.0 0.0 0.178 45.37
2020-01-22 13:40 61.2 39.07 36.08 61.2 61.2 6.35 10.8 6.17 31.6 273.1 0.0 0.178 45.45
2020-01-22 13:45 59.85 39.34 35.04 59.85 59.85 10.45 12.24 8.37 19.2 256.6 0.0 0.138 45.5
2020-01-22 13:50 60.15 39.24 35.25 60.15 60.15 7.07 11.16 8.68 16.7 252.4 0.0 0.171 45.55
2020-01-22 13:55 60.03 39.14 35.08 60.03 60.03 8.3 14.92 9.84 12.0 256.1 0.0 0.171 45.63
2020-01-22 14:00 60.46 39.88 35.94 60.46 60.46 6.35 8.86 6.55 19.3 259.4 0.0 0.15 45.7
2020-01-22 14:05 60.4 39.11 35.4 60.4 60.4 7.07 14.92 8.63 20.8 262.5 0.0 0.162 45.75
2020-01-22 14:10 60.28 38.56 34.93 60.28 60.28 6.89 12.77 8.97 17.2 267.3 0.0 0.163 45.82
2020-01-22 14:15 61.12 39.17 36.08 61.12 61.12 6.53 11.7 6.78 22.2 242.0 0.0 0.164 45.88
2020-01-22 14:20 61.99 37.41 35.69 61.99 61.99 9.57 11.34 7.2 22.1 254.5 0.0 0.172 45.95
2020-01-22 14:25 61.02 37.68 35.01 61.02 61.02 9.73 11.7 8.37 21.0 246.9 0.0 0.165 46.02
2020-01-22 14:30 61.43 37.61 35.33 61.43 61.43 11.16 14.38 10.27 19.7 246.3 0.0 0.171 46.08
2020-01-22 14:35 61.56 36.94 34.99 61.56 61.56 7.07 12.06 8.12 11.8 264.1 0.0 0.175 46.13
2020-01-22 14:40 62.22 36.39 35.2 62.22 62.22 4.38 10.27 6.67 19.0 263.5 0.0 0.167 46.18
2020-01-22 14:45 62.29 35.78 34.84 62.29 62.29 5.82 8.3 6.11 16.7 263.6 0.0 0.158 46.26
2020-01-22 14:50 62.1 36.83 35.39 62.1 62.1 6.89 9.04 6.51 22.1 266.5 0.0 0.149 46.33
2020-01-22 14:55 61.97 35.95 34.67 61.97 61.97 4.92 8.48 4.97 38.1 278.5 0.0 0.087 46.4
2020-01-22 15:00 60.75 36.83 34.19 60.75 60.75 5.64 8.12 5.26 12.6 259.7 0.0 0.077 46.44
2020-01-22 15:05 61.61 35.91 34.32 61.61 61.61 5.46 5.46 3.22 62.5 296.6 0.0 0.097 46.51
2020-01-22 15:10 61.97 35.24 34.17 61.97 61.97 6.17 9.91 6.6 35.2 14.9 0.0 0.127 46.58
2020-01-22 15:15 61.61 36.19 34.52 61.61 61.61 6.0 11.34 7.61 16.7 342.3 0.0 0.076 46.63
2020-01-22 15:20 60.94 38.08 35.21 60.94 60.94 4.56 7.96 4.85 17.8 335.5 0.0 0.034 46.69
2020-01-22 15:25 61.3 36.87 34.72 61.3 61.3 2.42 5.82 2.84 32.6 336.3 0.0 0.075 46.71
2020-01-22 15:30 61.86 36.49 34.95 61.86 61.86 4.21 8.48 5.73 14.2 344.7 0.0 0.106 46.78
2020-01-22 15:35 61.99 36.33 34.95 61.99 61.99 1.16 5.82 3.53 33.7 343.1 0.0 0.07 46.81
2020-01-22 15:40 62.6 35.0 34.56 62.6 62.6 3.49 5.28 2.89 48.1 329.5 0.0 0.093 46.85
2020-01-22 15:45 62.65 34.84 34.49 62.65 62.65 4.21 5.28 3.47 25.3 339.7 0.0 0.077 46.9
2020-01-22 15:50 62.04 35.38 34.33 62.04 62.04 6.17 9.91 6.42 17.7 348.7 0.0 0.058 46.92
2020-01-22 15:55 61.74 35.75 34.32 61.74 61.74 1.88 9.04 6.46 34.0 344.3 0.0 0.056 46.96
2020-01-22 16:00 61.74 36.33 34.73 61.74 61.74 3.67 6.0 3.04 31.2 328.2 0.0 0.053 46.99
2020-01-22 16:05 61.38 35.99 34.17 61.38 61.38 3.31 5.1 3.78 22.6 338.2 0.0 0.043 46.99
2020-01-22 16:10 61.2 36.56 34.41 61.2 61.2 1.16 4.03 1.86 41.5 335.7 0.0 0.024 47.03
2020-01-22 16:15 60.53 37.75 34.62 60.53 60.53 2.59 4.92 2.24 51.9 307.2 0.0 0.018 47.05
2020-01-22 16:20 59.85 38.33 34.39 59.85 59.85 4.03 4.21 2.59 35.5 323.4 0.0 0.02 47.07
2020-01-22 16:25 59.79 39.11 34.85 59.79 59.79 3.31 6.17 3.69 21.0 332.8 0.0 0.03 47.07
2020-01-22 16:30 59.92 38.43 34.52 59.92 59.92 3.13 5.64 2.82 24.4 323.0 0.0 0.031 47.08
2020-01-22 16:35 60.53 36.74 33.94 60.53 60.53 4.74 6.17 3.65 30.4 329.6 0.0 0.046 47.1
2020-01-22 16:40 61.14 36.47 34.3 61.14 61.14 4.03 8.48 4.88 30.8 339.8 0.0 0.053 47.1

Data is courtesy of the NM Climate Center. DO NOT USE IN LEGAL PROCEEDINGS.